Time;durP1;ratioP1;P1;durP2;ratioP2;P2;SDS_P1;SDS_P2;PMS_P1;PMS_P2;Temp;Humidity;BMP_temperature;BMP_pressure;BME280_temperature;BME280_humidity;BME280_pressure;Samples;Min_cycle;Max_cycle;Signal;HPM_P1;HPM_P2
2022/11/02 00:00:31;;;;;;;8.25;1.33;;;12.70;99.90;;;;;;4961893;28;20536;-77
2022/11/02 00:02:56;;;;;;;7.22;1.20;;;12.70;99.90;;;;;;4961820;28;20026;-77
2022/11/02 00:05:25;;;;;;;4.10;0.75;;;12.70;99.90;;;;;;4952238;28;20035;-76
2022/11/02 00:07:51;;;;;;;8.68;1.70;;;12.80;99.90;;;;;;4962696;28;20038;-77
2022/11/02 00:10:17;;;;;;;11.13;1.92;;;12.80;99.90;;;;;;4942520;28;20034;-77
2022/11/02 00:12:43;;;;;;;7.53;1.67;;;12.80;99.90;;;;;;4928624;28;20383;-77
2022/11/02 00:15:09;;;;;;;9.90;1.08;;;12.80;99.90;;;;;;4949843;28;20038;-77
2022/11/02 00:17:36;;;;;;;5.20;1.33;;;12.80;99.90;;;;;;4967602;28;20399;-77
2022/11/02 00:20:02;;;;;;;3.78;0.95;;;12.80;99.90;;;;;;4981536;28;20406;-77
2022/11/02 00:22:28;;;;;;;11.43;1.33;;;12.80;99.90;;;;;;4966315;28;20026;-77
2022/11/02 00:24:54;;;;;;;8.40;1.42;;;12.90;99.90;;;;;;4950742;28;20029;-77
2022/11/02 00:27:19;;;;;;;4.43;1.17;;;12.90;99.90;;;;;;4968921;28;20609;-77
2022/11/02 00:29:45;;;;;;;10.27;1.67;;;12.90;99.90;;;;;;4953873;28;20031;-77
2022/11/02 00:32:10;;;;;;;7.35;1.35;;;12.90;99.90;;;;;;4954011;28;20033;-77
2022/11/02 00:34:36;;;;;;;13.05;1.35;;;12.90;99.90;;;;;;4964182;28;20031;-76
2022/11/02 00:37:01;;;;;;;13.63;1.88;;;12.90;99.90;;;;;;4960659;28;20394;-77
2022/11/02 00:39:27;;;;;;;8.70;1.05;;;12.90;99.90;;;;;;4964651;28;20501;-77
2022/11/02 00:41:52;;;;;;;7.35;2.45;;;12.90;99.90;;;;;;4968242;28;20023;-77
2022/11/02 00:44:18;;;;;;;5.85;1.13;;;12.90;99.90;;;;;;4954086;28;20022;-77
2022/11/02 00:46:44;;;;;;;4.60;0.82;;;12.80;99.90;;;;;;4981479;28;20061;-77
2022/11/02 00:49:09;;;;;;;7.63;2.08;;;12.90;99.90;;;;;;4966486;28;20093;-77
2022/11/02 00:51:35;;;;;;;8.20;1.10;;;12.80;99.90;;;;;;4964404;28;20066;-77
2022/11/02 00:54:00;;;;;;;11.70;1.60;;;12.90;99.90;;;;;;4962566;28;20026;-77
2022/11/02 00:56:26;;;;;;;8.02;1.02;;;12.80;99.90;;;;;;4963246;28;20043;-77
2022/11/02 00:58:51;;;;;;;9.52;1.30;;;12.90;99.90;;;;;;4965115;28;20088;-77
2022/11/02 01:01:17;;;;;;;6.68;1.45;;;12.90;99.90;;;;;;4950347;28;20483;-77
2022/11/02 01:03:42;;;;;;;4.03;0.90;;;12.90;99.90;;;;;;4964582;28;20410;-77
2022/11/02 01:06:10;;;;;;;10.10;1.50;;;12.90;99.90;;;;;;4964811;28;20410;-77
2022/11/02 01:08:35;;;;;;;9.55;1.63;;;12.90;99.90;;;;;;4970439;28;20046;-77
2022/11/02 01:11:14;;;;;;;12.77;1.40;;;12.90;99.90;;;;;;4967177;28;20026;-77
2022/11/02 01:13:40;;;;;;;9.80;1.30;;;13.00;99.90;;;;;;4955167;28;20403;-76
2022/11/02 01:16:06;;;;;;;9.60;3.30;;;13.00;99.90;;;;;;4954740;28;20065;-76
2022/11/02 01:18:32;;;;;;;10.65;1.33;;;12.90;99.90;;;;;;4966437;28;20038;-77
2022/11/02 01:20:58;;;;;;;7.95;1.58;;;13.00;99.90;;;;;;4982106;28;20368;-77
2022/11/02 01:23:24;;;;;;;10.77;1.60;;;12.90;99.90;;;;;;4952832;28;20026;-77
2022/11/02 01:25:50;;;;;;;8.05;1.33;;;12.90;99.90;;;;;;4962589;28;20115;-77
2022/11/02 01:28:15;;;;;;;11.15;2.65;;;13.00;99.90;;;;;;4954347;28;20501;-77
2022/11/02 01:30:41;;;;;;;13.20;2.15;;;12.90;99.90;;;;;;4965321;28;20034;-77
2022/11/02 01:33:06;;;;;;;7.80;1.30;;;12.90;99.90;;;;;;4965493;28;20351;-77
2022/11/02 01:35:32;;;;;;;12.32;1.90;;;12.90;99.90;;;;;;4960821;28;20933;-77
2022/11/02 01:37:57;;;;;;;3.83;1.08;;;12.90;99.90;;;;;;4968428;28;20418;-77
2022/11/02 01:40:23;;;;;;;9.43;0.98;;;12.90;99.90;;;;;;4950910;28;20550;-77
2022/11/02 01:42:49;;;;;;;5.65;1.02;;;12.80;99.90;;;;;;4967696;28;20502;-77
2022/11/02 01:45:14;;;;;;;4.88;0.70;;;12.90;99.90;;;;;;4950029;28;20038;-76
2022/11/02 01:47:45;;;;;;;6.10;1.15;;;12.80;99.90;;;;;;4951841;28;20517;-77
2022/11/02 01:50:19;;;;;;;7.05;0.77;;;12.80;99.90;;;;;;4960986;28;20045;-77
2022/11/02 01:52:45;;;;;;;4.15;1.60;;;12.80;99.90;;;;;;4951115;28;20031;-77
2022/11/02 01:55:18;;;;;;;10.95;1.60;;;12.80;99.90;;;;;;4937311;28;20037;-77
2022/11/02 01:57:46;;;;;;;5.05;0.85;;;12.80;99.90;;;;;;4950064;28;20519;-77
2022/11/02 02:00:13;;;;;;;12.73;2.05;;;12.70;99.90;;;;;;4950873;28;20061;-77
2022/11/02 02:03:03;;;;;;;10.27;1.25;;;12.70;99.90;;;;;;4950489;28;20034;-77
2022/11/02 02:05:28;;;;;;;8.40;1.23;;;12.80;99.90;;;;;;4955501;28;20100;-77
2022/11/02 02:07:55;;;;;;;10.00;1.40;;;12.80;99.90;;;;;;4939231;28;20039;-77
2022/11/02 02:10:20;;;;;;;7.05;1.17;;;12.90;99.90;;;;;;4950942;28;20026;-77
2022/11/02 02:12:46;;;;;;;3.47;0.82;;;12.80;99.90;;;;;;4960082;28;20489;-77
2022/11/02 02:15:11;;;;;;;6.85;1.70;;;12.80;99.90;;;;;;4965948;28;20027;-77
2022/11/02 02:18:07;;;;;;;5.78;1.05;;;12.90;99.90;;;;;;4949973;28;20042;-77
2022/11/02 02:20:43;;;;;;;2.22;0.55;;;12.90;99.90;;;;;;4949385;28;20085;-77
2022/11/02 02:23:11;;;;;;;;;;;12.90;99.90;;;;;;4972892;28;20049;-76
2022/11/02 02:25:43;;;;;;;5.72;0.80;;;12.90;99.90;;;;;;4978014;28;19914;-76
2022/11/02 02:28:21;;;;;;;9.10;1.60;;;12.90;99.90;;;;;;4979634;28;20038;-76
2022/11/02 02:31:09;;;;;;;13.32;2.10;;;12.80;99.90;;;;;;4980929;28;20486;-77
2022/11/02 02:33:38;;;;;;;7.30;1.35;;;12.70;99.90;;;;;;4962193;28;20030;-76
2022/11/02 02:36:22;;;;;;;7.07;0.93;;;12.70;99.90;;;;;;4948664;28;20026;-77
2022/11/02 02:38:54;;;;;;;7.25;1.27;;;12.80;99.90;;;;;;4946902;28;20448;-77
2022/11/02 02:41:28;;;;;;;8.70;1.60;;;12.70;99.90;;;;;;4952595;28;20372;-77
2022/11/02 02:43:55;;;;;;;7.05;1.60;;;12.70;99.90;;;;;;4968105;28;20029;-77
2022/11/02 02:46:25;;;;;;;6.75;1.63;;;12.70;99.90;;;;;;4949276;28;20128;-77
2022/11/02 02:48:51;;;;;;;10.10;1.73;;;12.60;99.90;;;;;;4954907;28;20109;-77
2022/11/02 02:51:21;;;;;;;6.10;1.35;;;12.60;99.90;;;;;;4952243;28;20142;-77
2022/11/02 02:53:52;;;;;;;9.10;1.85;;;12.60;99.90;;;;;;4963699;28;20083;-77
2022/11/02 02:56:20;;;;;;;4.70;0.98;;;12.60;99.90;;;;;;4951620;28;20141;-76
2022/11/02 02:59:06;;;;;;;7.25;1.45;;;12.60;99.90;;;;;;4947753;28;20092;-76
2022/11/02 03:01:39;;;;;;;11.73;1.73;;;12.70;99.90;;;;;;5013469;28;20974;-77
2022/11/02 03:04:07;;;;;;;7.78;1.10;;;12.70;99.90;;;;;;4989297;28;20035;-77
2022/11/02 03:06:33;;;;;;;7.50;1.10;;;12.60;99.90;;;;;;5006547;28;20030;-77
2022/11/02 03:09:18;;;;;;;6.22;1.02;;;12.70;99.90;;;;;;5002201;28;20125;-77
2022/11/02 03:11:47;;;;;;;13.15;1.83;;;12.60;99.90;;;;;;4989572;28;20042;-76
2022/11/02 03:14:33;;;;;;;11.48;1.40;;;12.60;99.90;;;;;;5020765;28;20516;-74
2022/11/02 03:17:17;;;;;;;2.58;0.85;;;12.70;99.90;;;;;;5008534;28;20026;-75
2022/11/02 03:19:56;;;;;;;4.68;1.02;;;12.70;99.90;;;;;;5011998;28;20041;-75
2022/11/02 03:22:32;;;;;;;12.80;1.58;;;12.70;99.90;;;;;;4999097;28;20624;-75
2022/11/02 03:25:28;;;;;;;11.23;1.33;;;12.70;99.90;;;;;;4998196;28;20191;-75
2022/11/02 03:28:24;;;;;;;8.17;1.30;;;12.60;99.90;;;;;;4980930;28;20022;-75
2022/11/02 03:31:08;;;;;;;8.30;1.10;;;12.70;99.90;;;;;;4994681;28;20038;-76
2022/11/02 03:33:36;;;;;;;14.15;2.10;;;12.60;99.90;;;;;;5003446;28;20061;-75
2022/11/02 03:36:07;;;;;;;18.48;2.58;;;12.60;99.90;;;;;;4992432;28;20038;-76
2022/11/02 03:38:40;;;;;;;6.07;1.38;;;12.60;99.90;;;;;;4987250;28;20089;-76
2022/11/02 03:41:06;;;;;;;5.53;1.35;;;12.50;99.90;;;;;;5001853;28;20042;-77
2022/11/02 03:43:32;;;;;;;5.00;1.20;;;12.50;99.90;;;;;;5010571;28;20579;-77
2022/11/02 03:45:58;;;;;;;4.30;1.33;;;12.60;99.90;;;;;;5014073;28;20494;-77
2022/11/02 03:48:25;;;;;;;4.30;1.23;;;12.50;99.90;;;;;;5004496;28;20084;-77
2022/11/02 03:50:51;;;;;;;7.93;1.35;;;12.50;99.90;;;;;;5001652;28;20030;-76
2022/11/02 03:53:31;;;;;;;4.15;0.80;;;12.50;99.90;;;;;;5000681;28;20049;-76
2022/11/02 03:56:03;;;;;;;4.55;1.10;;;12.50;99.90;;;;;;5014822;28;20404;-77
2022/11/02 03:58:28;;;;;;;4.53;0.77;;;12.40;99.90;;;;;;4997740;28;20037;-77
2022/11/02 04:00:59;;;;;;;3.50;0.90;;;12.50;99.90;;;;;;5012790;28;20485;-77
2022/11/02 04:03:24;;;;;;;7.05;1.58;;;12.50;99.90;;;;;;4985126;28;20037;-77
2022/11/02 04:05:50;;;;;;;8.48;1.42;;;12.50;99.90;;;;;;4998884;28;20029;-77
2022/11/02 04:08:21;;;;;;;6.47;1.10;;;12.50;99.90;;;;;;5003782;28;20548;-77
2022/11/02 04:16:19;;;;;;;7.60;1.45;;;12.40;99.90;;;;;;4988279;28;20073;-77
2022/11/02 04:21:29;;;;;;;17.23;2.72;;;12.30;99.90;;;;;;4980567;28;20169;-77
2022/11/02 04:26:39;;;;;;;7.70;1.15;;;12.40;99.90;;;;;;4984681;28;20041;-77
2022/11/02 04:29:04;;;;;;;9.65;1.33;;;12.30;99.90;;;;;;4986520;28;20031;-77
2022/11/02 04:31:30;;;;;;;7.15;1.33;;;12.30;99.90;;;;;;4966373;28;20042;-77
2022/11/02 04:33:58;;;;;;;9.85;1.50;;;12.20;99.90;;;;;;4988907;28;20089;-77
2022/11/02 04:36:24;;;;;;;6.25;1.58;;;12.20;99.90;;;;;;5003259;28;20030;-78
2022/11/02 04:38:49;;;;;;;6.40;1.42;;;12.20;99.90;;;;;;4975540;28;20410;-77
2022/11/02 04:44:14;;;;;;;11.50;1.73;;;12.10;99.90;;;;;;4958439;28;20034;-78
2022/11/02 04:46:41;;;;;;;6.10;1.20;;;12.10;99.90;;;;;;5001635;28;20040;-76
2022/11/02 04:49:06;;;;;;;4.45;0.95;;;12.00;99.90;;;;;;4994579;28;20059;-76
2022/11/02 04:51:32;;;;;;;7.53;1.05;;;12.10;99.90;;;;;;4993815;28;20449;-76
2022/11/02 04:53:58;;;;;;;7.55;0.95;;;12.20;99.90;;;;;;4987705;28;20402;-77
2022/11/02 04:56:24;;;;;;;4.82;1.08;;;12.10;99.90;;;;;;4989175;28;20125;-76
2022/11/02 04:58:51;;;;;;;2.35;0.55;;;12.10;99.90;;;;;;4990876;28;20045;-75
2022/11/02 05:01:17;;;;;;;5.60;0.93;;;12.10;99.90;;;;;;5010504;28;20038;-76
2022/11/02 05:03:42;;;;;;;6.32;1.50;;;12.20;99.90;;;;;;4999073;28;20038;-76
2022/11/02 05:06:09;;;;;;;4.00;0.75;;;12.20;99.90;;;;;;4988874;28;20448;-76
2022/11/02 05:08:35;;;;;;;12.82;1.52;;;12.20;99.90;;;;;;4991015;28;20031;-77
2022/11/02 05:11:00;;;;;;;4.95;1.00;;;12.20;99.90;;;;;;4989765;28;20646;-76
2022/11/02 05:13:26;;;;;;;9.05;1.55;;;12.20;99.90;;;;;;4987716;28;20030;-77
2022/11/02 05:15:55;;;;;;;6.80;2.05;;;12.20;99.90;;;;;;4985602;28;20038;-77
2022/11/02 05:18:20;;;;;;;2.42;0.73;;;12.20;99.90;;;;;;5001651;28;20034;-76
2022/11/02 05:20:50;;;;;;;7.78;1.48;;;12.30;99.90;;;;;;4999481;28;20068;-77
2022/11/02 05:23:16;;;;;;;6.47;1.52;;;12.20;99.90;;;;;;4996068;28;20042;-76
2022/11/02 05:25:42;;;;;;;11.07;1.35;;;12.20;99.90;;;;;;5009713;28;20039;-76
2022/11/02 05:28:07;;;;;;;5.13;0.93;;;12.10;99.90;;;;;;4979964;28;20154;-76
2022/11/02 05:30:33;;;;;;;10.82;1.17;;;12.20;99.90;;;;;;4976577;28;20103;-76
2022/11/02 05:32:58;;;;;;;8.30;1.35;;;12.30;99.90;;;;;;4994321;28;20117;-76
2022/11/02 05:35:24;;;;;;;8.38;1.40;;;12.20;99.90;;;;;;4980583;28;20026;-76
2022/11/02 05:37:50;;;;;;;4.18;1.10;;;12.20;99.90;;;;;;4981036;28;20026;-77
2022/11/02 05:40:15;;;;;;;3.30;0.90;;;12.30;99.90;;;;;;4999631;28;20041;-76
2022/11/02 05:42:41;;;;;;;4.38;1.17;;;12.40;99.90;;;;;;4981493;28;20137;-76
2022/11/02 05:45:07;;;;;;;3.42;0.65;;;12.40;99.90;;;;;;4973322;28;20103;-76
2022/11/02 05:47:35;;;;;;;5.78;1.25;;;12.30;99.90;;;;;;5000356;28;20041;-77
2022/11/02 05:50:01;;;;;;;6.57;1.42;;;12.30;99.90;;;;;;4983306;28;20030;-77
2022/11/02 05:52:26;;;;;;;6.82;1.05;;;12.30;99.90;;;;;;4981355;28;20037;-77
2022/11/02 05:54:52;;;;;;;5.40;0.93;;;12.30;99.90;;;;;;4979806;28;20022;-76
2022/11/02 05:57:18;;;;;;;9.32;1.75;;;12.20;99.90;;;;;;4979048;28;20027;-76
2022/11/02 05:59:43;;;;;;;2.72;0.55;;;12.40;99.90;;;;;;4959565;28;20039;-77
2022/11/02 06:02:09;;;;;;;12.80;1.67;;;12.40;99.90;;;;;;4980896;28;20110;-76
2022/11/02 06:04:34;;;;;;;10.15;1.10;;;12.30;99.90;;;;;;4979162;28;20027;-77
2022/11/02 06:07:00;;;;;;;4.68;1.40;;;12.30;99.90;;;;;;4981345;28;20026;-76
2022/11/02 06:09:25;;;;;;;7.68;1.00;;;12.30;99.90;;;;;;4968114;28;20026;-75
2022/11/02 06:11:51;;;;;;;2.15;0.40;;;12.30;99.90;;;;;;4995922;28;20026;-77
2022/11/02 06:14:16;;;;;;;7.38;0.77;;;12.20;99.90;;;;;;4989836;28;20751;-76
2022/11/02 06:16:42;;;;;;;5.15;0.77;;;12.30;99.90;;;;;;4992627;28;20033;-76
2022/11/02 06:19:07;;;;;;;2.60;0.98;;;12.20;99.90;;;;;;4980928;28;20033;-76
2022/11/02 06:21:33;;;;;;;4.10;0.80;;;12.30;99.90;;;;;;4998974;28;20037;-77
2022/11/02 06:23:58;;;;;;;0.75;0.60;;;12.10;99.90;;;;;;4988125;28;20116;-76
2022/11/02 06:26:24;;;;;;;7.13;1.73;;;12.10;99.90;;;;;;5000511;28;20446;-76
2022/11/02 06:28:50;;;;;;;6.40;0.90;;;12.20;99.90;;;;;;4982225;28;20026;-76
2022/11/02 06:31:16;;;;;;;4.78;0.73;;;12.10;99.90;;;;;;5005546;28;20510;-78
2022/11/02 06:33:43;;;;;;;5.88;0.85;;;12.00;99.90;;;;;;5000569;28;20118;-79
2022/11/02 06:36:08;;;;;;;8.45;1.60;;;12.20;99.90;;;;;;4994145;28;20085;-79
2022/11/02 06:38:34;;;;;;;15.98;1.73;;;12.10;99.90;;;;;;4986524;28;20061;-78
2022/11/02 06:41:02;;;;;;;19.15;1.30;;;12.20;99.90;;;;;;4986827;28;20532;-78
2022/11/02 06:43:28;;;;;;;2.67;0.90;;;12.10;99.90;;;;;;4999339;28;20034;-78
2022/11/02 06:45:54;;;;;;;9.25;2.63;;;12.20;99.90;;;;;;4988524;28;20546;-76
2022/11/02 06:48:20;;;;;;;7.00;1.20;;;12.20;99.90;;;;;;5013995;28;20038;-76
2022/11/02 06:50:46;;;;;;;5.90;1.10;;;12.20;99.90;;;;;;5014098;28;20242;-76
2022/11/02 06:53:11;;;;;;;7.82;0.98;;;12.10;99.90;;;;;;4994191;28;20111;-76
2022/11/02 06:55:37;;;;;;;4.28;1.60;;;12.20;99.90;;;;;;4997813;28;21100;-77
2022/11/02 06:58:03;;;;;;;7.45;1.10;;;12.20;99.90;;;;;;4996928;28;20030;-76
2022/11/02 07:00:29;;;;;;;3.80;1.05;;;12.20;99.90;;;;;;4988323;28;20528;-76
2022/11/02 07:03:05;;;;;;;7.78;1.30;;;12.20;99.90;;;;;;4993972;28;20037;-77
2022/11/02 07:05:30;;;;;;;;;;;12.20;99.90;;;;;;5011053;28;20766;-77
2022/11/02 07:07:56;;;;;;;5.90;1.03;;;12.30;99.90;;;;;;4991433;28;19913;-77
2022/11/02 07:10:21;;;;;;;11.23;1.33;;;12.30;99.90;;;;;;4997208;28;20627;-76
2022/11/02 07:12:47;;;;;;;3.33;0.98;;;12.30;99.90;;;;;;5001141;28;20030;-77
2022/11/02 07:15:12;;;;;;;5.47;0.68;;;12.30;99.90;;;;;;5000510;28;20035;-77
2022/11/02 07:17:39;;;;;;;6.80;1.27;;;12.30;99.90;;;;;;4998195;28;20378;-77
2022/11/02 07:20:05;;;;;;;11.55;1.10;;;12.30;99.90;;;;;;5002997;28;20030;-77
2022/11/02 07:22:30;;;;;;;9.00;1.75;;;12.30;99.90;;;;;;4998789;28;20550;-77
2022/11/02 07:24:56;;;;;;;4.68;1.48;;;12.30;99.90;;;;;;5000290;28;20113;-77
2022/11/02 07:27:21;;;;;;;6.40;1.38;;;12.30;99.90;;;;;;5001136;28;20069;-77
2022/11/02 07:29:47;;;;;;;3.13;1.08;;;12.40;99.90;;;;;;4998315;28;20034;-77
2022/11/02 07:32:12;;;;;;;6.45;0.90;;;12.50;99.90;;;;;;4998752;28;20160;-77
2022/11/02 07:34:38;;;;;;;7.25;1.23;;;12.50;99.90;;;;;;4997642;28;20026;-77
2022/11/02 07:37:04;;;;;;;6.55;1.50;;;12.50;99.90;;;;;;5014421;28;20597;-77
2022/11/02 07:39:29;;;;;;;9.13;1.45;;;12.50;99.90;;;;;;5004319;28;20042;-77
2022/11/02 07:41:55;;;;;;;12.70;1.65;;;12.60;99.90;;;;;;4993806;28;20394;-77
2022/11/02 07:44:20;;;;;;;6.22;0.90;;;12.60;99.90;;;;;;5000758;28;20474;-77
2022/11/02 07:46:46;;;;;;;6.82;1.10;;;12.60;99.90;;;;;;4999473;28;20040;-77
2022/11/02 07:49:11;;;;;;;6.88;1.52;;;12.60;99.90;;;;;;5001032;28;20505;-77
2022/11/02 07:51:37;;;;;;;3.63;0.57;;;12.60;99.90;;;;;;4997182;28;20037;-77
2022/11/02 07:54:03;;;;;;;6.03;1.80;;;12.60;99.90;;;;;;4998759;28;20026;-77
2022/11/02 07:56:28;;;;;;;12.57;1.13;;;12.60;99.90;;;;;;5001729;28;20080;-77
2022/11/02 07:58:54;;;;;;;5.25;1.92;;;12.70;99.90;;;;;;4983696;28;20097;-77
2022/11/02 08:01:19;;;;;;;2.97;0.88;;;12.70;99.90;;;;;;4999534;28;20042;-78
2022/11/02 08:03:46;;;;;;;8.90;1.23;;;12.70;99.90;;;;;;5001337;28;20489;-77
2022/11/02 08:06:12;;;;;;;8.65;1.80;;;12.70;99.90;;;;;;5000957;28;20034;-77
2022/11/02 08:08:38;;;;;;;5.95;1.27;;;12.70;99.90;;;;;;4999684;28;20107;-77
2022/11/02 08:11:05;;;;;;;2.78;1.02;;;12.70;99.90;;;;;;4999446;28;20035;-77
2022/11/02 08:13:30;;;;;;;8.57;1.45;;;12.80;99.90;;;;;;4989706;28;20117;-77
2022/11/02 08:15:56;;;;;;;5.13;0.90;;;12.90;99.90;;;;;;4986940;28;20129;-78
2022/11/02 08:18:23;;;;;;;3.83;0.73;;;12.80;99.90;;;;;;5003198;28;20034;-77
2022/11/02 08:20:49;;;;;;;9.07;0.80;;;12.90;99.90;;;;;;5003261;28;20064;-78
2022/11/02 08:23:15;;;;;;;5.95;1.30;;;13.00;99.90;;;;;;4999177;28;20031;-77
2022/11/02 08:25:40;;;;;;;2.67;1.30;;;13.10;99.90;;;;;;4999833;28;20406;-77
2022/11/02 08:28:10;;;;;;;10.23;1.75;;;13.20;99.90;;;;;;4998845;28;20035;-77
2022/11/02 08:30:36;;;;;;;1.90;0.52;;;13.30;99.90;;;;;;4997775;28;20047;-77
2022/11/02 08:33:04;;;;;;;8.02;1.25;;;13.40;99.90;;;;;;5009069;28;20035;-77
2022/11/02 08:35:29;;;;;;;5.00;1.55;;;13.50;99.90;;;;;;4993321;28;20532;-77
2022/11/02 08:37:56;;;;;;;7.10;1.58;;;13.50;99.90;;;;;;4991911;28;20029;-78
2022/11/02 08:40:21;;;;;;;6.22;1.65;;;13.70;99.90;;;;;;4981342;28;20034;-77
2022/11/02 08:42:47;;;;;;;2.15;0.68;;;13.80;99.90;;;;;;4991307;28;20037;-77
2022/11/02 08:45:13;;;;;;;5.35;1.33;;;13.80;99.90;;;;;;4992070;28;20510;-78
2022/11/02 08:47:42;;;;;;;5.78;0.55;;;13.90;99.90;;;;;;4986603;28;20031;-77
2022/11/02 08:50:08;;;;;;;4.32;1.40;;;14.00;99.90;;;;;;4983934;28;20038;-77
2022/11/02 08:52:35;;;;;;;15.07;1.52;;;14.10;99.90;;;;;;4997763;28;20069;-78
2022/11/02 08:55:01;;;;;;;7.57;1.33;;;14.10;99.90;;;;;;4995674;28;20401;-77
2022/11/02 08:57:26;;;;;;;9.20;1.08;;;14.00;99.90;;;;;;4975961;28;20034;-77
2022/11/02 08:59:52;;;;;;;14.13;2.35;;;14.00;99.90;;;;;;4968213;28;20165;-79
2022/11/02 09:02:17;;;;;;;6.38;0.98;;;14.00;99.90;;;;;;4994132;28;20109;-77
2022/11/02 09:04:43;;;;;;;4.90;1.50;;;14.10;99.90;;;;;;4984713;28;20038;-77
2022/11/02 09:07:09;;;;;;;8.27;1.13;;;14.10;99.90;;;;;;4988246;28;20027;-78
2022/11/02 09:09:34;;;;;;;2.30;0.93;;;14.20;99.90;;;;;;4981459;28;20441;-77
2022/11/02 09:12:00;;;;;;;6.80;1.33;;;14.30;99.90;;;;;;4985616;28;20056;-77
2022/11/02 09:14:25;;;;;;;9.73;1.95;;;14.30;99.90;;;;;;4993593;28;20030;-78
2022/11/02 09:16:51;;;;;;;5.45;1.25;;;14.30;99.90;;;;;;4982688;28;20195;-77
2022/11/02 09:19:16;;;;;;;10.95;1.38;;;14.30;99.90;;;;;;4989734;28;20034;-76
2022/11/02 09:21:42;;;;;;;5.25;1.02;;;14.40;99.90;;;;;;4997364;28;20030;-77
2022/11/02 09:24:08;;;;;;;4.18;1.20;;;14.40;99.90;;;;;;5000435;28;20050;-77
2022/11/02 09:26:34;;;;;;;5.28;0.77;;;14.30;99.90;;;;;;4996480;28;20088;-77
2022/11/02 09:28:59;;;;;;;5.18;1.10;;;14.10;99.90;;;;;;5002849;28;20026;-77
2022/11/02 09:31:27;;;;;;;8.13;1.10;;;14.20;99.90;;;;;;4983711;28;20454;-77
2022/11/02 09:33:52;;;;;;;12.63;1.58;;;14.30;99.90;;;;;;4996511;28;20460;-77
2022/11/02 09:36:18;;;;;;;4.90;1.05;;;14.30;99.90;;;;;;4998438;28;20546;-77
2022/11/02 09:38:43;;;;;;;7.47;1.85;;;14.40;99.90;;;;;;4984143;28;20049;-77
2022/11/02 09:41:21;;;;;;;13.23;1.67;;;14.40;99.90;;;;;;4988445;28;20376;-77
2022/11/02 09:43:55;;;;;;;4.55;0.80;;;14.50;99.90;;;;;;4996738;28;20034;-77
2022/11/02 09:46:26;;;;;;;7.22;1.42;;;14.50;99.90;;;;;;5017104;28;20036;-77
2022/11/02 09:49:03;;;;;;;2.97;0.63;;;14.60;99.90;;;;;;4981196;28;20489;-76
2022/11/02 09:52:00;;;;;;;11.02;1.92;;;14.60;99.90;;;;;;4987892;28;20418;-78
2022/11/02 09:54:42;;;;;;;12.60;2.40;;;14.50;99.90;;;;;;4984245;28;20073;-77
2022/11/02 09:57:15;;;;;;;15.15;2.00;;;14.50;99.90;;;;;;4990486;28;20502;-78
2022/11/02 09:59:41;;;;;;;10.40;1.50;;;14.60;99.90;;;;;;4998629;28;20041;-77
2022/11/02 10:02:09;;;;;;;4.80;1.10;;;14.60;99.90;;;;;;4999359;28;20030;-77
2022/11/02 10:04:54;;;;;;;8.48;1.27;;;14.50;99.90;;;;;;5003595;28;20553;-77
2022/11/02 10:07:25;;;;;;;6.60;1.05;;;14.50;99.90;;;;;;5001932;28;20512;-77
2022/11/02 10:10:11;;;;;;;5.80;1.40;;;14.60;99.90;;;;;;5001048;28;20117;-77
2022/11/02 10:12:51;;;;;;;9.18;1.52;;;14.70;99.90;;;;;;4989142;28;20498;-77
2022/11/02 10:15:39;;;;;;;4.93;1.02;;;14.70;99.90;;;;;;4994352;28;20053;-77
2022/11/02 10:18:04;;;;;;;2.65;0.93;;;14.80;99.90;;;;;;4984830;28;20105;-77
2022/11/02 10:20:39;;;;;;;7.25;1.00;;;14.90;99.90;;;;;;4977058;28;20137;-77
2022/11/02 10:23:10;;;;;;;10.18;1.42;;;15.10;99.90;;;;;;4984095;28;20114;-77
2022/11/02 10:25:35;;;;;;;13.98;1.65;;;15.10;99.90;;;;;;5013690;28;20038;-77
2022/11/02 10:28:08;;;;;;;1.70;0.60;;;15.20;99.90;;;;;;4998761;28;20493;-77
2022/11/02 10:30:33;;;;;;;3.72;1.02;;;15.30;99.90;;;;;;5000716;28;20034;-77
2022/11/02 10:32:59;;;;;;;9.15;1.25;;;15.30;99.90;;;;;;4988961;28;20440;-77
2022/11/02 10:35:55;;;;;;;5.82;1.38;;;15.40;99.90;;;;;;4989495;28;20532;-77
2022/11/02 10:38:55;;;;;;;2.57;0.67;;;15.60;99.70;;;;;;4998362;28;20049;-77
2022/11/02 10:41:52;;;;;;;7.43;1.55;;;15.80;99.00;;;;;;4998508;28;20273;-77
2022/11/02 10:44:35;;;;;;;6.32;1.20;;;15.80;98.90;;;;;;5012103;28;20097;-77
2022/11/02 10:47:14;;;;;;;4.90;1.48;;;15.80;98.70;;;;;;4986110;28;20501;-77
2022/11/02 10:49:42;;;;;;;4.70;1.05;;;16.00;98.00;;;;;;4996795;28;20058;-77
2022/11/02 10:52:11;;;;;;;8.57;1.25;;;15.90;98.00;;;;;;4994833;28;20060;-77
2022/11/02 10:54:37;;;;;;;10.77;1.30;;;15.90;97.90;;;;;;4999849;28;20081;-77
2022/11/02 10:57:13;;;;;;;6.15;1.08;;;16.00;97.70;;;;;;4986411;28;20064;-77
2022/11/02 10:59:38;;;;;;;4.43;1.00;;;15.80;97.80;;;;;;4996378;28;20169;-77
2022/11/02 11:02:15;;;;;;;6.15;1.13;;;16.00;97.60;;;;;;4999479;28;20043;-77
2022/11/02 11:04:41;;;;;;;5.30;1.48;;;16.20;97.20;;;;;;5016558;28;20096;-77
2022/11/02 11:07:17;;;;;;;6.30;1.52;;;15.80;97.10;;;;;;4982112;28;20027;-77
2022/11/02 11:09:55;;;;;;;3.95;0.93;;;15.90;96.50;;;;;;4990889;28;20041;-77
2022/11/02 11:12:30;;;;;;;7.93;0.95;;;15.90;96.60;;;;;;5015882;28;20124;-77
2022/11/02 11:14:56;;;;;;;8.38;1.77;;;15.80;97.00;;;;;;4998873;28;20084;-77
2022/11/02 11:17:48;;;;;;;5.57;1.23;;;16.00;96.90;;;;;;4998583;28;20125;-77
2022/11/02 11:20:30;;;;;;;3.47;1.27;;;16.10;96.90;;;;;;4988206;28;20038;-76
2022/11/02 11:23:21;;;;;;;9.30;1.75;;;16.30;96.40;;;;;;4982962;28;20496;-77
2022/11/02 11:25:57;;;;;;;6.72;1.58;;;15.90;97.30;;;;;;4986702;28;20053;-77
2022/11/02 11:28:39;;;;;;;10.13;1.55;;;16.30;96.90;;;;;;4996693;28;20037;-77
2022/11/02 11:31:05;;;;;;;7.93;1.38;;;16.50;97.00;;;;;;5001843;28;20674;-77
2022/11/02 11:33:32;;;;;;;6.72;1.20;;;16.50;96.70;;;;;;5001110;28;20493;-77
2022/11/02 11:35:57;;;;;;;8.57;1.20;;;16.50;96.60;;;;;;4985380;28;20567;-77
2022/11/02 11:38:26;;;;;;;4.43;1.95;;;16.70;96.70;;;;;;4990793;28;20026;-77
2022/11/02 11:40:52;;;;;;;8.20;1.45;;;17.00;96.40;;;;;;5000085;28;20056;-77
2022/11/02 11:43:20;;;;;;;9.48;1.50;;;16.80;96.30;;;;;;4985655;28;20037;-78
2022/11/02 11:45:59;;;;;;;6.15;1.08;;;17.10;94.80;;;;;;5004059;28;20113;-78
2022/11/02 11:48:39;;;;;;;7.95;1.20;;;17.20;94.60;;;;;;5001351;28;20026;-78
2022/11/02 11:51:19;;;;;;;15.52;1.67;;;16.90;94.50;;;;;;4996233;28;20059;-76
2022/11/02 11:54:05;;;;;;;5.25;1.05;;;17.10;93.60;;;;;;4986755;28;20054;-77
2022/11/02 11:56:30;;;;;;;4.38;0.80;;;17.50;93.90;;;;;;4996858;28;20038;-77
2022/11/02 11:58:56;;;;;;;8.32;1.27;;;17.80;93.90;;;;;;5006442;28;20025;-78
2022/11/02 12:01:22;;;;;;;6.78;1.17;;;18.10;93.00;;;;;;4999354;28;20037;-78
2022/11/02 12:03:54;;;;;;;8.55;1.40;;;18.10;92.90;;;;;;5003129;28;20030;-77
2022/11/02 12:06:26;;;;;;;8.45;1.08;;;18.20;91.80;;;;;;4994447;28;20580;-78
2022/11/02 12:09:10;;;;;;;3.35;0.63;;;18.10;91.70;;;;;;4999566;28;20535;-77
2022/11/02 12:11:52;;;;;;;3.55;1.00;;;17.80;91.60;;;;;;4998731;28;20038;-78
2022/11/02 12:14:44;;;;;;;4.85;0.77;;;17.90;91.80;;;;;;5003002;28;20543;-77
2022/11/02 12:17:30;;;;;;;2.85;0.73;;;17.90;91.00;;;;;;5002349;28;20037;-77
2022/11/02 12:19:58;;;;;;;8.50;1.65;;;18.00;89.40;;;;;;4985433;28;20048;-78
2022/11/02 12:22:39;;;;;;;4.05;1.35;;;17.80;91.30;;;;;;4999219;28;20429;-77
2022/11/02 12:25:37;;;;;;;10.23;1.60;;;17.50;92.10;;;;;;5005693;28;20078;-78
2022/11/02 12:28:19;;;;;;;3.50;1.02;;;17.50;91.40;;;;;;4940952;28;20478;-77
2022/11/02 12:31:21;;;;;;;3.40;0.82;;;17.60;91.80;;;;;;5002141;28;20537;-77
2022/11/02 12:34:15;;;;;;;4.22;0.88;;;18.10;91.40;;;;;;5010104;28;20034;-77
2022/11/02 12:36:59;;;;;;;6.30;0.80;;;18.40;90.70;;;;;;4951482;28;20031;-77
2022/11/02 12:39:43;;;;;;;7.35;1.33;;;18.20;90.70;;;;;;5000833;28;20034;-77
2022/11/02 12:42:32;;;;;;;8.65;1.35;;;18.10;90.50;;;;;;5001587;28;20042;-77
2022/11/02 12:45:17;;;;;;;7.60;1.30;;;17.80;91.00;;;;;;5009614;28;20044;-77
2022/11/02 12:47:53;;;;;;;5.87;1.67;;;17.70;91.70;;;;;;4976851;28;20043;-77
2022/11/02 12:50:20;;;;;;;6.72;1.40;;;17.70;91.90;;;;;;5003104;28;20109;-77
2022/11/02 12:53:05;;;;;;;12.25;1.55;;;18.10;91.30;;;;;;5016997;28;20034;-77
2022/11/02 12:55:33;;;;;;;6.65;2.05;;;17.80;91.00;;;;;;5013881;28;20034;-77
2022/11/02 12:58:06;;;;;;;6.57;2.13;;;17.90;90.90;;;;;;5001376;28;20053;-77
2022/11/02 13:00:35;;;;;;;7.75;0.88;;;17.90;91.40;;;;;;4992304;28;20046;-77
2022/11/02 13:03:07;;;;;;;6.10;1.25;;;18.00;91.00;;;;;;4998689;28;20490;-77
2022/11/02 13:05:44;;;;;;;11.23;1.60;;;18.20;90.50;;;;;;4999305;28;20065;-77
2022/11/02 13:08:18;;;;;;;10.80;1.30;;;18.40;90.10;;;;;;5004197;28;20573;-77
2022/11/02 13:10:49;;;;;;;7.57;0.90;;;17.50;90.60;;;;;;4997104;28;20509;-77
2022/11/02 13:13:16;;;;;;;3.45;0.50;;;17.80;90.40;;;;;;5001338;28;20552;-76